sensor_id;sensor_type;location;lat;lon;timestamp;temperature;humidity
42085;DHT22;27746;52.228;20.890;2023-07-13T00:04:15;19.70;99.90
42085;DHT22;27746;52.228;20.890;2023-07-13T00:06:42;19.80;99.90
42085;DHT22;27746;52.228;20.890;2023-07-13T00:11:38;19.70;99.90
42085;DHT22;27746;52.228;20.890;2023-07-13T00:14:07;19.60;99.90
42085;DHT22;27746;52.228;20.890;2023-07-13T00:26:23;19.60;99.90
42085;DHT22;27746;52.228;20.890;2023-07-13T00:28:50;19.50;99.90
42085;DHT22;27746;52.228;20.890;2023-07-13T00:31:18;19.10;99.90
42085;DHT22;27746;52.228;20.890;2023-07-13T00:36:12;19.60;99.90
42085;DHT22;27746;52.228;20.890;2023-07-13T00:41:07;19.60;99.90
42085;DHT22;27746;52.228;20.890;2023-07-13T00:46:19;19.50;99.90
42085;DHT22;27746;52.228;20.890;2023-07-13T00:48:47;19.50;99.90
42085;DHT22;27746;52.228;20.890;2023-07-13T00:51:30;19.50;99.90
42085;DHT22;27746;52.228;20.890;2023-07-13T00:54:00;19.50;99.90
42085;DHT22;27746;52.228;20.890;2023-07-13T00:56:30;19.50;99.90
42085;DHT22;27746;52.228;20.890;2023-07-13T01:01:26;19.40;99.90
42085;DHT22;27746;52.228;20.890;2023-07-13T01:11:19;19.40;99.90
42085;DHT22;27746;52.228;20.890;2023-07-13T01:16:19;19.30;99.90
42085;DHT22;27746;52.228;20.890;2023-07-13T01:18:50;19.40;99.90
42085;DHT22;27746;52.228;20.890;2023-07-13T01:21:18;19.40;99.90
42085;DHT22;27746;52.228;20.890;2023-07-13T01:38:30;19.30;99.90
42085;DHT22;27746;52.228;20.890;2023-07-13T01:40:57;19.20;99.90
42085;DHT22;27746;52.228;20.890;2023-07-13T01:43:24;19.20;99.90
42085;DHT22;27746;52.228;20.890;2023-07-13T01:48:18;19.20;99.90
42085;DHT22;27746;52.228;20.890;2023-07-13T01:50:46;19.20;99.90
42085;DHT22;27746;52.228;20.890;2023-07-13T01:55:42;19.20;99.90
42085;DHT22;27746;52.228;20.890;2023-07-13T02:12:55;19.10;99.90
42085;DHT22;27746;52.228;20.890;2023-07-13T02:20:16;19.10;99.90
42085;DHT22;27746;52.228;20.890;2023-07-13T02:22:43;19.10;99.90
42085;DHT22;27746;52.228;20.890;2023-07-13T02:30:07;19.10;99.90
42085;DHT22;27746;52.228;20.890;2023-07-13T02:47:19;19.10;99.90
42085;DHT22;27746;52.228;20.890;2023-07-13T03:02:02;19.10;99.90
42085;DHT22;27746;52.228;20.890;2023-07-13T03:04:31;19.10;99.90
42085;DHT22;27746;52.228;20.890;2023-07-13T03:09:25;19.10;99.90
42085;DHT22;27746;52.228;20.890;2023-07-13T03:11:53;19.10;99.90
42085;DHT22;27746;52.228;20.890;2023-07-13T03:14:20;19.00;99.90
42085;DHT22;27746;52.228;20.890;2023-07-13T03:21:44;19.10;99.90
42085;DHT22;27746;52.228;20.890;2023-07-13T03:26:38;19.10;99.90
42085;DHT22;27746;52.228;20.890;2023-07-13T03:31:34;19.10;99.90
42085;DHT22;27746;52.228;20.890;2023-07-13T03:36:31;19.10;99.90
42085;DHT22;27746;52.228;20.890;2023-07-13T03:39:02;19.00;99.90
42085;DHT22;27746;52.228;20.890;2023-07-13T03:46:24;19.20;99.90
42085;DHT22;27746;52.228;20.890;2023-07-13T03:51:19;19.30;99.90
42085;DHT22;27746;52.228;20.890;2023-07-13T03:53:47;19.30;99.90
42085;DHT22;27746;52.228;20.890;2023-07-13T03:56:17;19.40;99.90
42085;DHT22;27746;52.228;20.890;2023-07-13T03:58:45;19.40;99.90
42085;DHT22;27746;52.228;20.890;2023-07-13T04:01:14;19.50;99.90
42085;DHT22;27746;52.228;20.890;2023-07-13T04:03:42;19.60;99.90
42085;DHT22;27746;52.228;20.890;2023-07-13T04:06:14;19.70;99.90
42085;DHT22;27746;52.228;20.890;2023-07-13T04:08:47;19.70;99.90
42085;DHT22;27746;52.228;20.890;2023-07-13T04:11:17;19.90;99.90
42085;DHT22;27746;52.228;20.890;2023-07-13T04:18:38;20.20;99.90
42085;DHT22;27746;52.228;20.890;2023-07-13T04:21:05;20.40;99.90
42085;DHT22;27746;52.228;20.890;2023-07-13T04:23:32;20.50;99.90
42085;DHT22;27746;52.228;20.890;2023-07-13T04:28:27;20.60;99.90
42085;DHT22;27746;52.228;20.890;2023-07-13T04:35:49;20.70;99.90
42085;DHT22;27746;52.228;20.890;2023-07-13T04:38:21;20.70;99.90
42085;DHT22;27746;52.228;20.890;2023-07-13T04:40:50;20.70;99.90
42085;DHT22;27746;52.228;20.890;2023-07-13T04:45:46;20.80;99.90
42085;DHT22;27746;52.228;20.890;2023-07-13T04:53:08;20.80;99.90
42085;DHT22;27746;52.228;20.890;2023-07-13T04:55:36;20.80;99.90
42085;DHT22;27746;52.228;20.890;2023-07-13T05:00:30;20.80;99.90
42085;DHT22;27746;52.228;20.890;2023-07-13T05:02:59;20.80;99.90
42085;DHT22;27746;52.228;20.890;2023-07-13T05:05:26;20.80;99.90
42085;DHT22;27746;52.228;20.890;2023-07-13T05:07:53;20.80;99.90
42085;DHT22;27746;52.228;20.890;2023-07-13T05:10:21;20.90;99.90
42085;DHT22;27746;52.228;20.890;2023-07-13T05:15:17;21.00;99.90
42085;DHT22;27746;52.228;20.890;2023-07-13T05:17:46;21.00;99.90
42085;DHT22;27746;52.228;20.890;2023-07-13T05:20:16;21.10;99.90
42085;DHT22;27746;52.228;20.890;2023-07-13T05:25:12;21.20;99.90
42085;DHT22;27746;52.228;20.890;2023-07-13T05:30:07;21.20;99.90
42085;DHT22;27746;52.228;20.890;2023-07-13T05:32:36;21.30;99.90
42085;DHT22;27746;52.228;20.890;2023-07-13T05:37:32;21.40;99.90
42085;DHT22;27746;52.228;20.890;2023-07-13T05:39:59;21.50;99.90
42085;DHT22;27746;52.228;20.890;2023-07-13T14:03:37;21.20;99.90
42085;DHT22;27746;52.228;20.890;2023-07-13T14:08:31;21.30;99.90
42085;DHT22;27746;52.228;20.890;2023-07-13T14:13:27;21.30;99.90
42085;DHT22;27746;52.228;20.890;2023-07-13T14:15:55;21.30;99.90
42085;DHT22;27746;52.228;20.890;2023-07-13T14:18:22;21.40;99.90
42085;DHT22;27746;52.228;20.890;2023-07-13T14:20:53;21.30;99.90
42085;DHT22;27746;52.228;20.890;2023-07-13T14:23:20;21.30;99.90
42085;DHT22;27746;52.228;20.890;2023-07-13T14:25:47;21.20;99.90
42085;DHT22;27746;52.228;20.890;2023-07-13T14:28:20;21.30;99.90
42085;DHT22;27746;52.228;20.890;2023-07-13T14:30:48;21.30;99.90
42085;DHT22;27746;52.228;20.890;2023-07-13T14:35:42;21.40;99.90
42085;DHT22;27746;52.228;20.890;2023-07-13T14:38:13;21.40;99.90
42085;DHT22;27746;52.228;20.890;2023-07-13T14:40:41;21.40;99.90
42085;DHT22;27746;52.228;20.890;2023-07-13T14:43:10;21.40;99.90
42085;DHT22;27746;52.228;20.890;2023-07-13T14:45:39;21.40;99.90
42085;DHT22;27746;52.228;20.890;2023-07-13T14:48:14;21.20;99.90
42085;DHT22;27746;52.228;20.890;2023-07-13T14:50:41;21.30;99.90
42085;DHT22;27746;52.228;20.890;2023-07-13T14:53:11;21.20;99.90
42085;DHT22;27746;52.228;20.890;2023-07-13T14:55:38;21.20;99.90
42085;DHT22;27746;52.228;20.890;2023-07-13T14:58:06;21.20;99.90
42085;DHT22;27746;52.228;20.890;2023-07-13T15:00:35;20.90;99.90
42085;DHT22;27746;52.228;20.890;2023-07-13T15:03:04;21.00;99.90
42085;DHT22;27746;52.228;20.890;2023-07-13T15:05:32;20.90;99.90
42085;DHT22;27746;52.228;20.890;2023-07-13T15:08:01;21.00;99.90
42085;DHT22;27746;52.228;20.890;2023-07-13T15:10:32;20.90;99.90
42085;DHT22;27746;52.228;20.890;2023-07-13T15:13:01;20.90;99.90
42085;DHT22;27746;52.228;20.890;2023-07-13T15:15:31;20.80;99.90
42085;DHT22;27746;52.228;20.890;2023-07-13T15:20:29;20.80;99.90
42085;DHT22;27746;52.228;20.890;2023-07-13T15:25:26;20.50;99.90
42085;DHT22;27746;52.228;20.890;2023-07-13T15:27:55;20.60;99.90
42085;DHT22;27746;52.228;20.890;2023-07-13T15:30:24;20.60;99.90
42085;DHT22;27746;52.228;20.890;2023-07-13T15:35:21;20.50;99.90
42085;DHT22;27746;52.228;20.890;2023-07-13T15:40:16;20.50;99.90
42085;DHT22;27746;52.228;20.890;2023-07-13T15:42:44;20.40;99.90
42085;DHT22;27746;52.228;20.890;2023-07-13T15:45:18;20.40;99.90
42085;DHT22;27746;52.228;20.890;2023-07-13T15:50:15;20.40;99.90
42085;DHT22;27746;52.228;20.890;2023-07-13T15:52:43;20.40;99.90
42085;DHT22;27746;52.228;20.890;2023-07-13T15:55:11;20.40;99.90
42085;DHT22;27746;52.228;20.890;2023-07-13T15:57:39;20.30;99.90
42085;DHT22;27746;52.228;20.890;2023-07-13T16:00:19;20.30;99.90
42085;DHT22;27746;52.228;20.890;2023-07-13T16:02:47;20.30;99.90
42085;DHT22;27746;52.228;20.890;2023-07-13T16:07:43;20.30;99.90
42085;DHT22;27746;52.228;20.890;2023-07-13T16:10:16;20.40;99.90
42085;DHT22;27746;52.228;20.890;2023-07-13T16:15:13;20.40;99.90
42085;DHT22;27746;52.228;20.890;2023-07-13T16:17:43;20.40;99.90
42085;DHT22;27746;52.228;20.890;2023-07-13T16:20:10;20.40;99.90
42085;DHT22;27746;52.228;20.890;2023-07-13T16:22:39;20.30;99.90
42085;DHT22;27746;52.228;20.890;2023-07-13T16:25:14;20.40;99.90
42085;DHT22;27746;52.228;20.890;2023-07-13T16:27:41;20.40;99.90
42085;DHT22;27746;52.228;20.890;2023-07-13T16:30:14;20.40;99.90
42085;DHT22;27746;52.228;20.890;2023-07-13T16:32:45;20.40;99.90
42085;DHT22;27746;52.228;20.890;2023-07-13T16:35:12;20.40;99.90
42085;DHT22;27746;52.228;20.890;2023-07-13T16:40:19;20.30;99.90
42085;DHT22;27746;52.228;20.890;2023-07-13T16:42:48;20.30;99.90
42085;DHT22;27746;52.228;20.890;2023-07-13T16:50:18;20.30;99.90
42085;DHT22;27746;52.228;20.890;2023-07-13T16:55:14;20.30;99.90
42085;DHT22;27746;52.228;20.890;2023-07-13T16:57:43;20.30;99.90
42085;DHT22;27746;52.228;20.890;2023-07-13T17:00:19;20.30;99.90
42085;DHT22;27746;52.228;20.890;2023-07-13T17:02:49;20.30;99.90
42085;DHT22;27746;52.228;20.890;2023-07-13T17:05:19;20.30;99.90
42085;DHT22;27746;52.228;20.890;2023-07-13T17:07:46;20.30;99.90
42085;DHT22;27746;52.228;20.890;2023-07-13T17:10:19;20.30;99.90
42085;DHT22;27746;52.228;20.890;2023-07-13T17:12:48;20.30;99.90
42085;DHT22;27746;52.228;20.890;2023-07-13T17:17:44;20.20;99.90
42085;DHT22;27746;52.228;20.890;2023-07-13T17:20:19;20.20;99.90
42085;DHT22;27746;52.228;20.890;2023-07-13T17:22:49;20.20;99.90
42085;DHT22;27746;52.228;20.890;2023-07-13T17:30:16;20.20;99.90
42085;DHT22;27746;52.228;20.890;2023-07-13T17:32:44;20.20;99.90
42085;DHT22;27746;52.228;20.890;2023-07-13T17:35:21;20.20;99.90
42085;DHT22;27746;52.228;20.890;2023-07-13T17:42:44;20.20;99.90
42085;DHT22;27746;52.228;20.890;2023-07-13T17:45:12;20.20;99.90
42085;DHT22;27746;52.228;20.890;2023-07-13T17:47:45;20.20;99.90
42085;DHT22;27746;52.228;20.890;2023-07-13T17:50:16;20.20;99.90
42085;DHT22;27746;52.228;20.890;2023-07-13T17:52:49;20.20;99.90
42085;DHT22;27746;52.228;20.890;2023-07-13T17:55:17;20.10;99.90
42085;DHT22;27746;52.228;20.890;2023-07-13T17:57:46;20.20;99.90
42085;DHT22;27746;52.228;20.890;2023-07-13T18:00:17;20.10;99.90
42085;DHT22;27746;52.228;20.890;2023-07-13T18:03:04;20.10;99.90
42085;DHT22;27746;52.228;20.890;2023-07-13T18:05:33;20.10;99.90
42085;DHT22;27746;52.228;20.890;2023-07-13T18:08:02;20.10;99.90
42085;DHT22;27746;52.228;20.890;2023-07-13T18:10:30;20.10;99.90
42085;DHT22;27746;52.228;20.890;2023-07-13T18:15:29;20.10;99.90
42085;DHT22;27746;52.228;20.890;2023-07-13T18:17:58;20.10;99.90
42085;DHT22;27746;52.228;20.890;2023-07-13T18:25:25;20.00;99.90
42085;DHT22;27746;52.228;20.890;2023-07-13T18:30:20;20.00;99.90
42085;DHT22;27746;52.228;20.890;2023-07-13T18:32:49;19.90;99.90
42085;DHT22;27746;52.228;20.890;2023-07-13T18:35:23;19.30;99.90
42085;DHT22;27746;52.228;20.890;2023-07-13T18:40:20;19.80;99.90
42085;DHT22;27746;52.228;20.890;2023-07-13T18:42:52;19.80;99.90
42085;DHT22;27746;52.228;20.890;2023-07-13T18:47:51;19.70;99.90
42085;DHT22;27746;52.228;20.890;2023-07-13T18:50:21;19.70;99.90
42085;DHT22;27746;52.228;20.890;2023-07-13T18:55:20;19.60;99.90
42085;DHT22;27746;52.228;20.890;2023-07-13T19:00:22;19.60;99.90
42085;DHT22;27746;52.228;20.890;2023-07-13T19:02:54;19.60;99.90
42085;DHT22;27746;52.228;20.890;2023-07-13T19:05:22;19.60;99.90
42085;DHT22;27746;52.228;20.890;2023-07-13T19:07:51;19.50;99.90
42085;DHT22;27746;52.228;20.890;2023-07-13T19:10:19;19.60;99.90
42085;DHT22;27746;52.228;20.890;2023-07-13T19:12:51;20.40;99.90
42085;DHT22;27746;52.228;20.890;2023-07-13T19:15:24;19.60;99.90
42085;DHT22;27746;52.228;20.890;2023-07-13T19:17:51;19.60;99.90
42085;DHT22;27746;52.228;20.890;2023-07-13T19:20:19;19.60;99.90
42085;DHT22;27746;52.228;20.890;2023-07-13T19:22:51;19.60;99.90
42085;DHT22;27746;52.228;20.890;2023-07-13T19:25:20;19.60;99.90
42085;DHT22;27746;52.228;20.890;2023-07-13T19:27:48;19.50;99.90
42085;DHT22;27746;52.228;20.890;2023-07-13T19:32:45;19.50;99.90
42085;DHT22;27746;52.228;20.890;2023-07-13T19:40:17;19.40;99.90
42085;DHT22;27746;52.228;20.890;2023-07-13T19:45:17;16.50;99.90
42085;DHT22;27746;52.228;20.890;2023-07-13T19:47:46;19.30;99.90
42085;DHT22;27746;52.228;20.890;2023-07-13T19:50:15;19.30;99.90
42085;DHT22;27746;52.228;20.890;2023-07-13T19:52:46;19.40;99.90
42085;DHT22;27746;52.228;20.890;2023-07-13T19:55:17;19.40;99.90
42085;DHT22;27746;52.228;20.890;2023-07-13T19:57:45;19.30;99.90
42085;DHT22;27746;52.228;20.890;2023-07-13T20:00:17;19.30;99.90
42085;DHT22;27746;52.228;20.890;2023-07-13T20:02:45;19.30;99.90
42085;DHT22;27746;52.228;20.890;2023-07-13T20:05:14;19.30;99.90
42085;DHT22;27746;52.228;20.890;2023-07-13T20:07:42;19.30;99.90
42085;DHT22;27746;52.228;20.890;2023-07-13T20:10:19;19.20;99.90
42085;DHT22;27746;52.228;20.890;2023-07-13T20:15:16;19.20;99.90
42085;DHT22;27746;52.228;20.890;2023-07-13T20:17:45;19.20;99.90
42085;DHT22;27746;52.228;20.890;2023-07-13T20:20:19;19.20;99.90
42085;DHT22;27746;52.228;20.890;2023-07-13T20:22:48;19.10;99.90
42085;DHT22;27746;52.228;20.890;2023-07-13T20:25:16;19.10;99.90
42085;DHT22;27746;52.228;20.890;2023-07-13T20:30:11;19.10;99.90
42085;DHT22;27746;52.228;20.890;2023-07-13T20:32:39;19.10;99.90
42085;DHT22;27746;52.228;20.890;2023-07-13T20:35:25;19.10;99.90
42085;DHT22;27746;52.228;20.890;2023-07-13T20:40:22;19.00;99.90
42085;DHT22;27746;52.228;20.890;2023-07-13T20:42:50;19.00;99.90
42085;DHT22;27746;52.228;20.890;2023-07-13T20:47:46;19.00;99.90
42085;DHT22;27746;52.228;20.890;2023-07-13T20:50:21;19.00;99.90
42085;DHT22;27746;52.228;20.890;2023-07-13T20:52:51;18.90;99.90
42085;DHT22;27746;52.228;20.890;2023-07-13T20:55:21;18.90;99.90
42085;DHT22;27746;52.228;20.890;2023-07-13T21:00:17;18.90;99.90
42085;DHT22;27746;52.228;20.890;2023-07-13T21:02:45;18.90;99.90
42085;DHT22;27746;52.228;20.890;2023-07-13T21:05:16;18.90;99.90
42085;DHT22;27746;52.228;20.890;2023-07-13T21:07:45;18.90;99.90
42085;DHT22;27746;52.228;20.890;2023-07-13T21:10:15;18.90;99.90
42085;DHT22;27746;52.228;20.890;2023-07-13T21:15:10;18.90;99.90
42085;DHT22;27746;52.228;20.890;2023-07-13T21:17:38;18.90;99.90
42085;DHT22;27746;52.228;20.890;2023-07-13T21:20:14;18.90;99.90
42085;DHT22;27746;52.228;20.890;2023-07-13T21:25:14;18.90;99.90
42085;DHT22;27746;52.228;20.890;2023-07-13T21:30:13;18.80;99.90
42085;DHT22;27746;52.228;20.890;2023-07-13T21:32:41;18.90;99.90
42085;DHT22;27746;52.228;20.890;2023-07-13T21:35:18;18.90;99.90
42085;DHT22;27746;52.228;20.890;2023-07-13T21:37:47;18.90;99.90
42085;DHT22;27746;52.228;20.890;2023-07-13T21:40:17;18.80;99.90
42085;DHT22;27746;52.228;20.890;2023-07-13T21:45:23;18.80;99.90
42085;DHT22;27746;52.228;20.890;2023-07-13T21:47:50;18.80;99.90
42085;DHT22;27746;52.228;20.890;2023-07-13T21:50:18;18.80;99.90
42085;DHT22;27746;52.228;20.890;2023-07-13T21:52:47;18.70;99.90
42085;DHT22;27746;52.228;20.890;2023-07-13T21:55:19;18.70;99.90
42085;DHT22;27746;52.228;20.890;2023-07-13T21:57:49;18.70;99.90
42085;DHT22;27746;52.228;20.890;2023-07-13T22:00:19;18.70;99.90
42085;DHT22;27746;52.228;20.890;2023-07-13T22:02:47;18.60;99.90
42085;DHT22;27746;52.228;20.890;2023-07-13T22:05:15;18.60;99.90
42085;DHT22;27746;52.228;20.890;2023-07-13T22:07:43;18.60;99.90
42085;DHT22;27746;52.228;20.890;2023-07-13T22:10:19;18.50;99.90
42085;DHT22;27746;52.228;20.890;2023-07-13T22:12:47;18.60;99.90
42085;DHT22;27746;52.228;20.890;2023-07-13T22:15:15;18.50;99.90
42085;DHT22;27746;52.228;20.890;2023-07-13T22:17:45;18.50;99.90
42085;DHT22;27746;52.228;20.890;2023-07-13T22:20:16;18.50;99.90
42085;DHT22;27746;52.228;20.890;2023-07-13T22:22:43;18.50;99.90
42085;DHT22;27746;52.228;20.890;2023-07-13T22:25:10;18.40;99.90
42085;DHT22;27746;52.228;20.890;2023-07-13T22:27:39;18.20;99.90
42085;DHT22;27746;52.228;20.890;2023-07-13T22:30:10;18.40;99.90
42085;DHT22;27746;52.228;20.890;2023-07-13T22:40:04;18.20;99.90
42085;DHT22;27746;52.228;20.890;2023-07-13T22:42:36;18.30;99.90
42085;DHT22;27746;52.228;20.890;2023-07-13T22:45:08;18.30;99.90
42085;DHT22;27746;52.228;20.890;2023-07-13T22:47:36;18.30;99.90
42085;DHT22;27746;52.228;20.890;2023-07-13T22:50:12;18.20;99.90
42085;DHT22;27746;52.228;20.890;2023-07-13T22:55:12;18.20;99.90
42085;DHT22;27746;52.228;20.890;2023-07-13T22:57:39;18.20;99.90
42085;DHT22;27746;52.228;20.890;2023-07-13T23:00:15;18.20;99.90
42085;DHT22;27746;52.228;20.890;2023-07-13T23:02:42;18.20;99.90
42085;DHT22;27746;52.228;20.890;2023-07-13T23:05:13;18.20;99.90
42085;DHT22;27746;52.228;20.890;2023-07-13T23:07:41;18.20;99.90
42085;DHT22;27746;52.228;20.890;2023-07-13T23:10:15;18.10;99.90
42085;DHT22;27746;52.228;20.890;2023-07-13T23:15:12;18.20;99.90
42085;DHT22;27746;52.228;20.890;2023-07-13T23:17:44;18.10;99.90
42085;DHT22;27746;52.228;20.890;2023-07-13T23:20:23;18.10;99.90
42085;DHT22;27746;52.228;20.890;2023-07-13T23:25:18;18.10;99.90
42085;DHT22;27746;52.228;20.890;2023-07-13T23:27:48;18.10;99.90
42085;DHT22;27746;52.228;20.890;2023-07-13T23:30:18;18.00;99.90
42085;DHT22;27746;52.228;20.890;2023-07-13T23:32:47;18.00;99.90
42085;DHT22;27746;52.228;20.890;2023-07-13T23:35:15;18.00;99.90
42085;DHT22;27746;52.228;20.890;2023-07-13T23:37:44;17.90;99.90
42085;DHT22;27746;52.228;20.890;2023-07-13T23:40:17;17.90;99.90
42085;DHT22;27746;52.228;20.890;2023-07-13T23:42:44;17.80;99.90
42085;DHT22;27746;52.228;20.890;2023-07-13T23:45:17;21.40;99.90
42085;DHT22;27746;52.228;20.890;2023-07-13T23:47:47;17.70;99.90
42085;DHT22;27746;52.228;20.890;2023-07-13T23:50:16;17.70;99.90
42085;DHT22;27746;52.228;20.890;2023-07-13T23:55:13;17.70;99.90
42085;DHT22;27746;52.228;20.890;2023-07-13T23:57:41;17.70;99.90
